Webcam Flughafen St.Gallen-Altenrhein

Live-Bilder und Zeitraffer LSZR / ACH.

 

Live aus Altenrhein
LIVE
LSZR 231950Z AUTO 31020G33KT 280V340 4600 +TSRA BR FEW010 SCT022 OVC042CB 16/14 Q1016 RERA
Zeitraffer heute
2018-09-23 00:14:23
LSZR 222150Z AUTO VRB01KT 9999 -RA OVC060 15/13 Q1021
Zeitraffer gestern
2018-09-22 00:00:00
LSZR 212150Z AUTO VRB02KT 9999 -RA OVC050 13/10 Q1022
Zeitraffer vor 3 Tagen
2018-09-20 00:14:23
LSZR 192150Z AUTO VRB01KT CAVOK 15/13 Q1022